Tuesday, July 25, 2017, 2:39 AM EDT

KRDG, Reading Regional Airport

Location: Reading, PA, United States Lat: 40.367
Local Time: 2:39 AM EDT ( 6:39 GMT) Lon: -75.967
Time Zone: US/Eastern Elev: 344 ft

Show me the last for .
Show Decoded

2017-07-25 02:14 METAR KRDG 250614Z 35003KT 10SM SCT014 OVC060 21/21 A2995 RMK AO2 T02060206 =
2017-07-25 02:07 METAR KRDG 250607Z 36003KT 10SM BKN013 BKN022 OVC055 21/21 A2995 RMK AO2
                 T02060206 =
2017-07-25 01:54 METAR KRDG 250554Z 00000KT 10SM SCT009 BKN016 OVC055 21/21 A2995 RMK AO2 SLP144
                 T02110211 10217 20206 51020 =
2017-07-25 01:51 METAR KRDG 250551Z 00000KT 10SM SCT009 BKN016 OVC055 21/21 A2995 RMK AO2 =
2017-07-25 01:05 METAR KRDG 250505Z 00000KT 10SM OVC010 21/21 A2994 RMK AO2 T02110211 =
2017-07-25 00:54 METAR KRDG 250454Z 00000KT 10SM OVC008 21/21 A2994 RMK AO2 CIG 006V010 SLP141
                 T02110211 403000206 =
2017-07-24 23:54 METAR KRDG 250354Z 03003KT 8SM BKN009 BKN050 OVC085 21/21 A2992 RMK AO2 SLP134
                 T02110211 =
2017-07-24 23:37 METAR KRDG 250337Z 02004KT 10SM SCT009 BKN075 OVC090 21/21 A2991 RMK AO2
                 T02110211 =
2017-07-24 22:54 METAR KRDG 250254Z 00000KT 10SM BKN075 21/21 A2989 RMK AO2 SLP123 T02110211
                 53020 =
2017-07-24 21:54 METAR KRDG 250154Z 00000KT 9SM SCT075 OVC095 21/21 A2988 RMK AO2 SLP120
                 T02110211 =
2017-07-24 20:54 METAR KRDG 250054Z 00000KT 3SM BR FEW100 21/21 A2983 RMK AO2 SLP106 T02110211 =
2017-07-24 19:54 METAR KRDG 242354Z 00000KT 10SM OVC100 22/21 A2983 RMK AO2 LTG DSNT E-S RAE21
                 TSE13 SLP104 P0006 60089 T02170211 10300 20206 53016 =
2017-07-24 19:32 METAR KRDG 242332Z 00000KT 10SM BKN100 21/21 A2983 RMK AO2 LTG DSNT E AND SE
                 RAE21 TSE13 P0006 T02110211 =
2017-07-24 19:15 METAR KRDG 242315Z 36006KT 10SM VCTS -RA SCT012 SCT050 BKN060 21/21 A2982 RMK
                 AO2 LTG DSNT ALQDS TSE13 P0006 T02110211 =
2017-07-24 19:09 METAR KRDG 242309Z 01008KT 7SM TSRA BKN014 BKN055 OVC110 21/21 A2982 RMK AO2 LTG
                 DSNT ALQDS P0006 T02110211 =
2017-07-24 19:01 METAR KRDG 242301Z 02010G23KT 2SM R36/2000VP6000FT -TSRA BR BKN013 BKN034 OVC060
                 21/21 A2983 RMK AO2 LTG DSNT ALQDS P0003 T02110211 =
2017-07-24 18:57 METAR KRDG 242257Z 02013G28KT 3/4SM R36/1200VP6000FT +TSRA BR BKN011 BKN034
                 OVC043 21/21 A2982 RMK AO2 LTG DSNT ALQDS P0003 T02060206 =
2017-07-24 18:54 METAR KRDG 242254Z 36016G29KT 1/2SM R36/1200V3500FT +TSRA FG BKN008 BKN034
                 OVC065 21/21 A2980 RMK AO2 PK WND 29029/2242 WSHFT 2225 LTG DSNT ALQDS RAB34
                 TSB43 SLP095 P0083 T02060206 =
2017-07-24 18:51 METAR KRDG 242251Z 01016G29KT 1/2SM R36/1200VP6000FT +TSRA FG BKN008 BKN034
                 OVC070 21/21 A2982 RMK AO2 PK WND 29029/2242 WSHFT 2225 LTG DSNT ALQDS RAB34
                 TSB43 P0071 =
2017-07-24 18:46 METAR KRDG 242246Z 34022G29KT 1 1/2SM R36/1400VP6000FT +TSRA BR SCT013 BKN040
                 OVC075 22/21 A2984 RMK AO2 PK WND 29029/2242 WSHFT 2225 VIS 1/2V5 LTG DSNT NW-E
                 RAB34 TSB43 P0039 T02170206 =
2017-07-24 18:43 METAR KRDG 242243Z 31022G29KT 5SM R36/4500VP6000FT +TSRA BR FEW015 BKN044 OVC070
                 23/21 A2985 RMK AO2 PK WND 29029/2242 WSHFT 2225 LTG DSNT ALQDS RAB34 TSB43
                 PRESRR P0009 T02280206 =
2017-07-24 18:25 METAR KRDG 242225Z 36010G16KT 310V040 10SM VCTS SCT070 OVC100 28/21 A2979 RMK
                 AO2 LTG DSNT W-NE T02830211 =
2017-07-24 17:54 METAR KRDG 242154Z 21007KT 10SM SCT049 29/21 A2978 RMK AO2 LTG DSNT W-NE SLP087
                 T02890206 =
2017-07-24 16:54 METAR KRDG 242054Z AUTO 22010KT 10SM FEW046 SCT060 30/21 A2978 RMK AO2 SLP087
                 T03000206 56004 =
2017-07-24 15:54 METAR KRDG 241954Z 26006KT 10SM CLR 30/21 A2978 RMK AO2 SLP088 T03000206 =
2017-07-24 14:54 METAR KRDG 241854Z 27005KT 10SM FEW040 29/21 A2979 RMK AO2 SLP089 T02940211 =
2017-07-24 13:54 METAR KRDG 241754Z 27009KT 10SM FEW036 SCT046 SCT060 29/21 A2979 RMK AO2 SLP091
                 60000 T02890211 10289 20211 58001 =
2017-07-24 12:54 METAR KRDG 241654Z VRB06KT 10SM FEW030 SCT036 27/21 A2980 RMK AO2 SLP093
                 T02720211 =
2017-07-24 11:54 METAR KRDG 241554Z 00000KT 10SM SCT024 27/21 A2980 RMK AO2 SLP092 T02670211 =
2017-07-24 11:49 METAR KRDG 241549Z 31005KT 10SM BKN024 26/21 A2980 RMK AO2 =
2017-07-24 10:54 METAR KRDG 241454Z 32009KT 10SM SCT019 26/21 A2979 RMK AO2 SLP091 60000
                 T02560211 51015 =
2017-07-24 09:54 METAR KRDG 241354Z 30008KT 10SM FEW014 24/22 A2978 RMK AO2 SLP086 T02440217 =
2017-07-24 08:54 METAR KRDG 241254Z 33006KT 10SM FEW012 SCT100 22/21 A2978 RMK AO2 RAE01 SLP085
                 P0000 T02220211 =
2017-07-24 07:54 METAR KRDG 241154Z 00000KT 10SM -RA FEW055 BKN075 21/21 A2975 RMK AO2 SLP076
                 P0040 60106 70129 T02110211 10217 20206 53010 =
2017-07-24 07:35 METAR KRDG 241135Z 36004KT 10SM -RA FEW006 BKN040 OVC070 22/22 A2976 RMK AO2
                 P0040 T02170217 =
2017-07-24 07:27 METAR KRDG 241127Z 32004KT 1/2SM R36/5500VP6000FT -RA BR FEW005 BKN032 OVC050
                 21/21 A2976 RMK AO2 SFC VIS 4 P0040 T02110211 =
2017-07-24 07:05 METAR KRDG 241105Z 17005KT 1/2SM R36/3500V6000FT +RA BR FEW005 OVC012 21/21
                 A2973 RMK AO2 SFC VIS 1 1/2 P0017 T02110211 =
2017-07-24 06:54 METAR KRDG 241054Z 21003KT 3/4SM R36/2600VP6000FT +RA BR SCT005 OVC010 22/22
                 A2974 RMK AO2 SFC VIS 1 RAB23 SLP071 P0030 T02170217 =
2017-07-24 05:54 METAR KRDG 240954Z 14005KT 10SM OVC005 21/21 A2971 RMK AO2 CIG 005V009 SLP063
                 T02110211 =
2017-07-24 05:03 METAR KRDG 240903Z 17004KT 10SM OVC009 21/21 A2972 RMK AO2 CIG 006V013 T02110211
                 =
2017-07-24 04:54 METAR KRDG 240854Z 17003KT 10SM OVC012 21/21 A2972 RMK AO2 SLP066 60036
                 T02110211 56016 =
2017-07-24 04:39 METAR KRDG 240839Z 15004KT 10SM BKN012 BKN018 21/21 A2972 RMK AO2 T02110211 =
2017-07-24 04:32 METAR KRDG 240832Z 15006KT 10SM FEW009 BKN016 21/21 A2972 RMK AO2 T02110211 =
2017-07-24 04:15 METAR KRDG 240815Z 11003KT 10SM FEW012 BKN019 OVC041 21/21 A2972 RMK AO2
                 T02110211 =
2017-07-24 03:54 METAR KRDG 240754Z 14004KT 10SM FEW030 BKN039 BKN110 21/21 A2973 RMK AO2 RAE52
                 SLP069 P0029 T02110211 =
2017-07-24 03:34 METAR KRDG 240734Z 15005KT 10SM -RA FEW021 SCT030 BKN110 21/21 A2973 RMK AO2
                 P0029 T02110211 =
2017-07-24 03:13 METAR KRDG 240713Z 14006KT 5SM +RA BR SCT008 BKN024 OVC029 21/21 A2975 RMK AO2
                 P0024 T02110211 =
2017-07-24 02:54 METAR KRDG 240654Z 14007KT 8SM RA OVC010 21/21 A2975 RMK AO2 RAB0557 SLP078
                 P0007 T02060206 =

Support USWX by starting your Amazon purchase here.